Time;durP1;ratioP1;P1;durP2;ratioP2;P2;SDS_P1;SDS_P2;PMS_P1;PMS_P2;Temp;Humidity;BMP_temperature;BMP_pressure;BME280_temperature;BME280_humidity;BME280_pressure;Samples;Min_cycle;Max_cycle;Signal;HPM_P1;HPM_P2
2023/02/05 00:02:22;;;;;;;5.43;2.63;;;;;;;-0.98;76.24;103219.94;5003364;28;20042;-86
2023/02/05 00:04:50;;;;;;;5.18;2.85;;;;;;;-1.00;75.84;103222.44;4983069;28;20056;-85
2023/02/05 00:07:18;;;;;;;5.93;2.95;;;;;;;-1.10;75.45;103221.28;4996911;28;20043;-83
2023/02/05 00:09:46;;;;;;;6.55;3.45;;;;;;;-1.14;76.22;103219.44;4978394;28;20107;-84
2023/02/05 00:12:13;;;;;;;4.68;2.85;;;;;;;-1.11;76.73;103222.13;4979783;28;20212;-83
2023/02/05 00:14:41;;;;;;;5.90;3.35;;;;;;;-1.10;76.76;103223.88;4987882;28;20577;-83
2023/02/05 00:17:09;;;;;;;5.68;3.10;;;;;;;-1.07;76.90;103221.41;4969346;28;20082;-84
2023/02/05 00:19:36;;;;;;;5.45;3.20;;;;;;;-1.10;76.52;103223.88;4987210;28;20049;-86
2023/02/05 00:22:04;;;;;;;5.32;3.50;;;;;;;-1.16;76.54;103226.28;4984136;28;20150;-83
2023/02/05 00:24:32;;;;;;;9.30;4.47;;;;;;;-1.13;76.77;103226.38;5024431;28;20086;-84
2023/02/05 00:26:59;;;;;;;6.95;3.85;;;;;;;-1.16;77.04;103226.28;5017094;28;20106;-85
2023/02/05 00:29:27;;;;;;;6.18;3.55;;;;;;;-1.13;76.94;103223.78;4980222;28;20129;-84
2023/02/05 00:31:55;;;;;;;5.65;3.95;;;;;;;-1.09;77.04;103219.59;4997124;28;20118;-84
2023/02/05 00:34:22;;;;;;;5.93;3.30;;;;;;;-1.09;77.04;103207.53;5001217;28;20064;-85
2023/02/05 00:36:50;;;;;;;6.47;3.40;;;;;;;-1.05;76.43;103209.38;5004000;28;20070;-83
2023/02/05 00:39:18;;;;;;;4.82;3.40;;;;;;;-1.04;76.78;103199.91;5005594;28;20042;-84
2023/02/05 00:41:51;;;;;;;5.18;3.08;;;;;;;-1.05;76.60;103206.78;5006965;28;20080;-84
2023/02/05 00:44:19;;;;;;;7.72;3.90;;;;;;;-1.05;77.16;103214.56;4983374;28;20141;-85
2023/02/05 00:46:47;;;;;;;7.28;3.80;;;;;;;-1.05;76.69;103208.50;4987124;28;20069;-85
2023/02/05 00:49:14;;;;;;;6.07;3.22;;;;;;;-1.06;76.74;103212.81;4986363;28;20053;-86
2023/02/05 00:51:43;;;;;;;5.72;3.50;;;;;;;-1.09;76.58;103211.81;4999177;28;20564;-85
2023/02/05 00:54:11;;;;;;;5.53;3.10;;;;;;;-1.13;77.39;103204.81;5025342;28;20022;-84
2023/02/05 00:56:39;;;;;;;7.47;3.33;;;;;;;-1.14;76.96;103196.19;5000712;28;20061;-84
2023/02/05 00:59:06;;;;;;;6.13;3.50;;;;;;;-1.17;76.94;103193.53;5016776;28;20114;-82
2023/02/05 01:01:34;;;;;;;7.50;3.08;;;;;;;-1.16;77.49;103196.97;4988674;28;20051;-83
2023/02/05 01:04:02;;;;;;;5.03;2.97;;;;;;;-1.16;77.32;103192.69;4962083;28;20470;-85
2023/02/05 01:06:30;;;;;;;10.20;3.30;;;;;;;-1.16;77.45;103184.06;4981863;28;20042;-85
2023/02/05 01:08:57;;;;;;;6.30;3.22;;;;;;;-1.17;77.49;103188.34;4976265;28;20046;-84
2023/02/05 01:11:25;;;;;;;4.72;2.95;;;;;;;-1.17;77.54;103184.88;4971178;28;20045;-85
2023/02/05 01:18:05;;;;;;;6.28;2.97;;;;;;;-1.19;77.32;103171.03;4995805;28;20054;-84
2023/02/05 01:20:36;;;;;;;7.93;2.92;;;;;;;-1.21;77.33;103163.25;4997606;28;20118;-83
2023/02/05 01:23:04;;;;;;;8.57;3.25;;;;;;;-1.22;77.71;103166.63;4973101;28;20045;-84
2023/02/05 01:25:32;;;;;;;5.95;3.08;;;;;;;-1.23;77.70;103162.31;5012975;28;20055;-84
2023/02/05 01:28:00;;;;;;;4.82;2.63;;;;;;;-1.28;77.77;103159.56;4986589;28;20074;-84
2023/02/05 01:30:34;;;;;;;5.65;2.78;;;;;;;-1.27;77.65;103157.88;4984250;28;20051;-83
2023/02/05 01:33:03;;;;;;;5.88;2.60;;;;;;;-1.27;77.83;103150.09;4967215;28;20049;-83
2023/02/05 01:35:32;;;;;;;6.20;2.50;;;;;;;-1.28;77.44;103150.94;5002350;28;20038;-84
2023/02/05 01:42:01;;;;;;;6.20;3.08;;;;;;;-1.31;77.20;103150.84;4992782;28;20536;-86
2023/02/05 01:44:37;;;;;;;7.40;3.22;;;;;;;-1.46;77.45;103148.69;5001134;28;20066;-86
2023/02/05 01:47:05;;;;;;;6.07;2.65;;;;;;;-1.49;77.76;103155.44;4988049;28;20138;-85
2023/02/05 01:49:41;;;;;;;6.30;2.58;;;;;;;-1.47;78.25;103157.25;4972978;28;20088;-85
2023/02/05 01:52:13;;;;;;;4.18;2.42;;;;;;;-1.44;78.29;103151.28;4985603;28;20093;-83
2023/02/05 01:54:44;;;;;;;8.07;3.45;;;;;;;-1.43;78.34;103143.63;5018178;28;20041;-83
2023/02/05 01:57:17;;;;;;;7.05;2.70;;;;;;;-1.45;78.19;103134.91;5009354;28;20069;-86
2023/02/05 01:59:45;;;;;;;6.57;3.38;;;;;;;-1.49;77.63;103129.63;4991907;28;20394;-85
2023/02/05 02:02:12;;;;;;;5.75;2.67;;;;;;;-1.53;78.04;103131.25;4970445;28;20056;-84
2023/02/05 02:04:43;;;;;;;4.90;3.25;;;;;;;-1.51;78.21;103127.00;5000737;28;20049;-84
2023/02/05 02:07:14;;;;;;;7.90;3.08;;;;;;;-1.49;78.43;103121.88;4967669;28;20047;-86
2023/02/05 02:09:43;;;;;;;5.63;2.80;;;;;;;-1.47;77.94;103123.69;4980917;28;20077;-85
2023/02/05 02:12:14;;;;;;;3.90;2.33;;;;;;;-1.46;77.91;103122.84;5008812;28;20054;-83
2023/02/05 02:14:43;;;;;;;5.47;2.65;;;;;;;-1.47;77.73;103115.94;5006976;28;20130;-85
2023/02/05 02:17:12;;;;;;;7.05;2.78;;;;;;;-1.49;77.80;103103.78;4982988;28;20110;-82
2023/02/05 02:19:41;;;;;;;8.90;3.10;;;;;;;-1.46;78.14;103101.31;4976574;28;20132;-85
2023/02/05 02:23:11;;;;;;;7.47;3.00;;;;;;;-1.46;77.92;103096.13;4977263;28;20057;-86
2023/02/05 02:26:04;;;;;;;5.35;2.45;;;;;;;-1.51;78.12;103098.59;4950330;28;20062;-85
2023/02/05 02:28:41;;;;;;;8.13;3.22;;;;;;;-1.51;77.67;103096.00;5004501;28;20070;-84
2023/02/05 02:31:31;;;;;;;7.05;3.20;;;;;;;-1.53;77.90;103095.09;5003512;28;20053;-85
2023/02/05 02:34:10;;;;;;;5.32;3.05;;;;;;;-1.58;77.90;103091.47;4973909;28;20156;-86
2023/02/05 02:36:52;;;;;;;4.75;2.80;;;;;;;-1.61;78.20;103092.25;4981628;28;20050;-85
2023/02/05 02:39:29;;;;;;;5.82;2.90;;;;;;;-1.60;78.26;103075.94;4991498;28;20484;-86
2023/02/05 02:42:18;;;;;;;8.85;3.22;;;;;;;-1.64;78.16;103071.50;4994956;28;20156;-86
2023/02/05 02:44:58;;;;;;;7.20;3.20;;;;;;;-1.64;78.50;103065.44;4970575;28;20038;-84
2023/02/05 02:47:30;;;;;;;5.18;2.92;;;;;;;-1.64;78.44;103068.91;5000864;28;20126;-84
2023/02/05 02:50:06;;;;;;;7.38;3.45;;;;;;;-1.62;78.56;103077.59;4992932;28;20161;-85
2023/02/05 02:52:35;;;;;;;;;;;;;;;-1.62;78.47;103071.53;4963860;28;20061;-87
2023/02/05 02:55:07;;;;;;;6.35;3.10;;;;;;;-1.62;78.07;103079.28;4998459;28;19933;-86
2023/02/05 02:57:36;;;;;;;6.10;3.20;;;;;;;-1.63;78.33;103077.53;4992225;28;20050;-86
2023/02/05 03:00:09;;;;;;;7.18;3.00;;;;;;;-1.66;78.23;103080.03;4978356;28;20066;-84
2023/02/05 03:02:37;;;;;;;8.45;3.60;;;;;;;-1.68;78.48;103077.38;4995203;28;20056;-85
2023/02/05 03:05:18;;;;;;;7.82;4.00;;;;;;;-1.66;78.23;103074.88;5003590;28;20062;-85
2023/02/05 03:08:22;;;;;;;5.80;3.60;;;;;;;-1.64;78.23;103080.94;4981985;28;20034;-85
2023/02/05 03:10:55;;;;;;;7.63;3.72;;;;;;;-1.67;78.46;103076.56;4982513;28;20502;-86
2023/02/05 03:13:23;;;;;;;9.18;4.00;;;;;;;-1.67;78.08;103079.13;4973963;28;20053;-86
2023/02/05 03:15:51;;;;;;;7.15;3.85;;;;;;;-1.64;78.14;103075.78;5011291;28;20066;-86
2023/02/05 03:18:18;;;;;;;7.40;4.68;;;;;;;-1.64;78.11;103070.63;4985857;28;20058;-86
2023/02/05 03:20:53;;;;;;;7.85;4.03;;;;;;;-1.61;78.12;103081.06;4989488;28;20045;-86
2023/02/05 03:23:21;;;;;;;10.63;4.65;;;;;;;-1.62;78.05;103080.19;4997918;28;20081;-85
2023/02/05 03:25:48;;;;;;;7.00;3.80;;;;;;;-1.62;78.12;103076.69;4990715;28;20500;-86
2023/02/05 03:28:16;;;;;;;9.70;4.18;;;;;;;-1.66;77.71;103083.50;5014359;28;20045;-85
2023/02/05 03:30:59;;;;;;;9.15;4.65;;;;;;;-1.69;77.78;103082.53;5005356;28;20042;-85
2023/02/05 03:33:51;;;;;;;12.25;5.20;;;;;;;-1.72;77.50;103083.28;4998340;28;20125;-85
2023/02/05 03:36:25;;;;;;;10.63;5.03;;;;;;;-1.74;77.91;103084.09;5004582;28;20063;-84
2023/02/05 03:39:23;;;;;;;12.23;4.78;;;;;;;-1.85;77.70;103074.28;4971158;28;20644;-84
2023/02/05 03:42:33;;;;;;;8.45;5.07;;;;;;;-1.83;77.82;103069.19;5002145;28;20057;-84
2023/02/05 03:45:19;;;;;;;12.07;4.45;;;;;;;-1.82;77.95;103068.34;4996541;28;20058;-85
2023/02/05 03:48:02;;;;;;;6.38;3.65;;;;;;;-1.76;78.12;103076.28;5005619;28;20038;-84
2023/02/05 03:50:39;;;;;;;8.02;4.68;;;;;;;-1.74;78.18;103077.22;4985211;28;20078;-84
2023/02/05 03:53:35;;;;;;;7.10;4.43;;;;;;;-1.71;78.12;103079.00;4965583;28;20053;-85
2023/02/05 03:56:13;;;;;;;;;;;;;;;-1.70;77.94;103083.34;4971392;28;20081;-86
2023/02/05 03:58:43;;;;;;;9.30;4.40;;;;;;;-1.70;78.11;103070.44;4994127;28;19928;-85
2023/02/05 04:01:11;;;;;;;11.65;5.15;;;;;;;-1.67;78.31;103073.97;5004942;28;20110;-85
2023/02/05 04:03:39;;;;;;;12.57;5.03;;;;;;;-1.68;77.90;103079.97;5008566;28;20054;-84
2023/02/05 04:06:07;;;;;;;7.00;4.28;;;;;;;-1.68;78.10;103082.56;4988735;28;20139;-84
2023/02/05 04:08:35;;;;;;;9.00;4.85;;;;;;;-1.67;78.19;103086.88;5006810;28;20564;-86
2023/02/05 04:11:03;;;;;;;8.70;4.20;;;;;;;-1.66;78.17;103093.81;4991081;28;20113;-83
2023/02/05 04:13:30;;;;;;;8.95;4.60;;;;;;;-1.63;78.27;103099.06;4999878;28;20026;-83
2023/02/05 04:15:58;;;;;;;9.07;4.70;;;;;;;-1.61;78.23;103105.19;5015932;28;20058;-83
2023/02/05 04:18:27;;;;;;;7.50;4.03;;;;;;;-1.59;77.84;103107.78;5024526;28;20046;-86
2023/02/05 04:20:55;;;;;;;8.45;4.45;;;;;;;-1.59;77.95;103108.66;4975929;28;20133;-85
2023/02/05 04:23:22;;;;;;;12.10;4.55;;;;;;;-1.59;78.18;103112.97;5023801;28;20046;-83
2023/02/05 04:25:54;;;;;;;7.70;4.65;;;;;;;-1.60;78.17;103112.09;5003754;28;20513;-85
2023/02/05 04:28:22;;;;;;;6.18;3.75;;;;;;;-1.56;78.00;103100.16;4989576;28;20373;-85
2023/02/05 04:30:49;;;;;;;9.13;4.00;;;;;;;-1.58;78.13;103106.97;4993997;28;20046;-84
2023/02/05 04:33:17;;;;;;;8.82;4.65;;;;;;;-1.58;78.08;103097.50;4987569;28;20057;-84
2023/02/05 04:35:44;;;;;;;7.85;4.40;;;;;;;-1.56;78.04;103097.56;4989991;28;20085;-84
2023/02/05 04:38:12;;;;;;;8.32;4.38;;;;;;;-1.54;77.67;103093.31;4995062;28;20069;-84
2023/02/05 04:41:11;;;;;;;7.95;4.28;;;;;;;-1.50;77.89;103096.88;4977484;28;20050;-85
2023/02/05 04:43:38;;;;;;;6.68;3.80;;;;;;;-1.50;78.02;103095.16;5002322;28;20113;-83
2023/02/05 04:46:09;;;;;;;10.60;4.32;;;;;;;-1.49;77.74;103086.56;5011231;28;20158;-84
2023/02/05 04:48:37;;;;;;;7.97;4.18;;;;;;;-1.47;78.20;103094.38;5002782;28;20485;-85
2023/02/05 04:51:08;;;;;;;7.35;4.07;;;;;;;-1.46;78.56;103091.84;4975338;28;20077;-84
2023/02/05 04:53:36;;;;;;;8.90;4.85;;;;;;;-1.44;78.05;103089.28;4980095;28;20050;-83
2023/02/05 04:56:12;;;;;;;8.68;4.63;;;;;;;-1.45;78.44;103084.97;5007840;28;20382;-84
2023/02/05 04:58:40;;;;;;;6.95;4.78;;;;;;;-1.46;78.57;103070.31;4977286;28;20049;-84
2023/02/05 05:01:21;;;;;;;10.05;4.25;;;;;;;-1.47;78.39;103076.31;4978952;28;20081;-84
2023/02/05 05:03:49;;;;;;;9.73;5.28;;;;;;;-1.48;78.55;103083.19;4990586;28;20125;-85
2023/02/05 05:06:17;;;;;;;8.65;4.60;;;;;;;-1.52;78.62;103077.88;4999834;28;20060;-83
2023/02/05 05:08:45;;;;;;;8.57;4.78;;;;;;;-1.55;78.73;103082.09;5012272;28;20050;-83
2023/02/05 05:11:16;;;;;;;8.23;4.68;;;;;;;-1.56;78.96;103082.06;4998533;28;20038;-83
2023/02/05 05:13:44;;;;;;;9.00;4.45;;;;;;;-1.51;79.25;103082.22;4999396;28;20046;-82
2023/02/05 05:16:11;;;;;;;9.30;4.95;;;;;;;-1.52;78.95;103077.88;4974199;28;20058;-84
2023/02/05 05:18:39;;;;;;;11.63;5.35;;;;;;;-1.53;78.62;103079.59;5014844;28;20062;-84
2023/02/05 05:21:10;;;;;;;10.85;5.53;;;;;;;-1.60;78.61;103070.75;4987031;28;20505;-85
2023/02/05 05:23:38;;;;;;;8.30;4.47;;;;;;;-1.63;79.07;103070.66;5004445;28;20050;-85
2023/02/05 05:26:07;;;;;;;9.85;5.07;;;;;;;-1.57;79.34;103068.28;5003309;28;20120;-83
2023/02/05 05:28:35;;;;;;;11.77;5.13;;;;;;;-1.52;79.20;103071.00;4986700;28;20069;-84
2023/02/05 05:31:08;;;;;;;9.63;4.93;;;;;;;-1.49;79.61;103081.41;4981646;28;20042;-86
2023/02/05 05:33:36;;;;;;;7.72;4.10;;;;;;;-1.48;79.56;103078.00;5001302;28;20062;-85
2023/02/05 05:36:05;;;;;;;8.93;3.95;;;;;;;-1.46;79.68;103080.63;4971612;28;20137;-83
2023/02/05 05:38:34;;;;;;;7.93;4.50;;;;;;;-1.45;79.42;103100.47;4994692;28;20085;-84
2023/02/05 05:43:49;;;;;;;6.50;3.72;;;;;;;-1.39;79.47;103098.09;4997591;28;20042;-83
2023/02/05 05:46:23;;;;;;;10.10;4.30;;;;;;;-1.41;79.11;103107.47;4981048;28;20102;-84
2023/02/05 05:48:53;;;;;;;6.97;4.13;;;;;;;-1.43;79.22;103112.63;4988217;28;20045;-85
2023/02/05 05:51:22;;;;;;;6.07;3.55;;;;;;;-1.45;79.40;103116.84;5006036;28;20045;-85
2023/02/05 05:53:50;;;;;;;8.48;3.80;;;;;;;-1.47;79.38;103117.63;4996502;28;20050;-84
2023/02/05 05:56:18;;;;;;;7.40;3.75;;;;;;;-1.52;79.21;103114.91;4987802;28;20495;-83
2023/02/05 05:58:46;;;;;;;7.03;3.85;;;;;;;-1.52;79.31;103103.72;5005297;28;20042;-85
2023/02/05 06:01:16;;;;;;;7.53;3.47;;;;;;;-1.55;79.14;103107.06;4974169;28;20050;-84
2023/02/05 06:03:44;;;;;;;7.35;3.78;;;;;;;-1.59;79.62;103100.03;4977154;28;20046;-86
2023/02/05 06:06:12;;;;;;;6.00;3.35;;;;;;;-1.56;79.76;103088.09;4994158;28;20077;-84
2023/02/05 06:08:40;;;;;;;8.35;3.97;;;;;;;-1.54;80.05;103091.59;4991085;28;20076;-85
2023/02/05 06:11:08;;;;;;;7.00;3.40;;;;;;;-1.50;79.48;103087.41;5005324;28;20088;-83
2023/02/05 06:13:35;;;;;;;6.57;3.05;;;;;;;-1.51;79.47;103090.81;4991408;28;20077;-85
2023/02/05 06:16:03;;;;;;;4.65;2.88;;;;;;;-1.48;79.44;103092.66;4996818;28;20113;-86
2023/02/05 06:18:31;;;;;;;5.68;3.20;;;;;;;-1.49;79.71;103085.69;5013175;28;20128;-84
2023/02/05 06:21:01;;;;;;;4.60;3.60;;;;;;;-1.48;79.14;103087.47;4993238;28;20061;-84
2023/02/05 06:23:28;;;;;;;6.45;3.20;;;;;;;-1.47;79.28;103084.06;5009371;28;20525;-84
2023/02/05 06:25:56;;;;;;;4.50;2.88;;;;;;;-1.47;79.27;103084.06;4988148;28;20054;-85
2023/02/05 06:28:24;;;;;;;5.10;3.08;;;;;;;-1.45;79.48;103087.53;5003564;28;20066;-85
2023/02/05 06:30:52;;;;;;;5.60;3.05;;;;;;;-1.43;79.37;103079.03;4992292;28;20046;-86
2023/02/05 06:33:20;;;;;;;5.07;2.95;;;;;;;-1.44;79.37;103090.19;5015589;28;20142;-86
2023/02/05 06:35:47;;;;;;;6.22;2.92;;;;;;;-1.50;79.22;103091.69;4998225;28;20049;-84
2023/02/05 06:38:15;;;;;;;7.18;3.10;;;;;;;-1.52;79.76;103083.91;4984062;28;20070;-85
2023/02/05 06:40:43;;;;;;;6.75;3.08;;;;;;;-1.46;79.74;103085.81;5006936;28;20117;-84
2023/02/05 06:43:11;;;;;;;5.93;3.60;;;;;;;-1.44;79.76;103090.19;4992175;28;20050;-84
2023/02/05 06:45:38;;;;;;;8.02;3.70;;;;;;;-1.42;79.75;103085.94;5010308;28;20080;-83
2023/02/05 06:48:06;;;;;;;6.43;3.08;;;;;;;-1.41;79.39;103084.22;5023265;28;20042;-85
2023/02/05 06:50:34;;;;;;;6.85;3.40;;;;;;;-1.38;79.35;103084.31;5015079;28;20082;-84
2023/02/05 06:53:04;;;;;;;6.80;3.60;;;;;;;-1.37;79.56;103078.31;5001836;28;20030;-83
2023/02/05 06:55:37;;;;;;;9.93;4.20;;;;;;;-1.36;79.33;103085.25;5019506;28;20046;-83
2023/02/05 06:58:06;;;;;;;5.93;4.03;;;;;;;-1.32;79.17;103084.50;5012128;28;20049;-85
2023/02/05 07:00:34;;;;;;;8.27;4.53;;;;;;;-1.30;79.14;103090.59;4993865;28;20038;-84
2023/02/05 07:03:02;;;;;;;7.32;3.95;;;;;;;-1.31;79.31;103087.16;4995018;28;20053;-83
2023/02/05 07:05:42;;;;;;;5.63;3.75;;;;;;;-1.30;79.40;103101.81;5018658;28;20018;-83
2023/02/05 07:08:23;;;;;;;7.68;4.00;;;;;;;-1.37;79.01;103114.50;5015426;28;20039;-83
2023/02/05 07:10:50;;;;;;;9.43;4.70;;;;;;;-1.38;79.49;103112.75;5012613;28;20085;-85
2023/02/05 07:13:18;;;;;;;7.68;4.55;;;;;;;-1.37;79.44;103109.31;4982264;28;20042;-86
2023/02/05 07:16:11;;;;;;;7.75;4.65;;;;;;;-1.34;79.58;103112.88;4993066;28;20058;-84
2023/02/05 07:18:39;;;;;;;7.57;4.38;;;;;;;-1.34;79.43;103109.44;4987918;28;20053;-85
2023/02/05 07:21:09;;;;;;;12.02;5.35;;;;;;;-1.32;79.28;103102.59;5005085;28;20057;-85
2023/02/05 07:23:42;;;;;;;8.05;4.25;;;;;;;-1.30;79.55;103098.34;4994171;28;20110;-85
2023/02/05 07:26:13;;;;;;;10.57;4.82;;;;;;;-1.25;79.68;103083.00;4993605;28;20062;-87
2023/02/05 07:28:41;;;;;;;10.48;5.53;;;;;;;-1.20;79.67;103090.03;5011721;28;20046;-83
2023/02/05 07:31:14;;;;;;;9.63;5.07;;;;;;;-1.18;78.99;103090.94;5028492;28;20034;-84
2023/02/05 07:33:45;;;;;;;9.63;4.90;;;;;;;-1.16;79.68;103085.84;4979162;28;20042;-84
2023/02/05 07:36:15;;;;;;;9.55;4.95;;;;;;;-1.11;79.16;103089.44;4996283;28;20047;-84
2023/02/05 07:38:44;;;;;;;14.32;5.70;;;;;;;-1.11;78.85;103094.59;5020515;28;20277;-83
2023/02/05 07:41:16;;;;;;;9.65;4.60;;;;;;;-1.14;78.72;103097.97;5015463;28;20038;-84
2023/02/05 07:43:44;;;;;;;11.55;5.15;;;;;;;-1.15;78.99;103092.75;4996299;28;20114;-84
2023/02/05 07:46:13;;;;;;;8.23;4.82;;;;;;;-1.12;79.29;103093.72;4985738;28;20054;-84
2023/02/05 07:48:41;;;;;;;8.63;5.00;;;;;;;-1.13;78.61;103084.19;5016541;28;20050;-85
2023/02/05 07:51:15;;;;;;;10.65;4.65;;;;;;;-1.19;77.78;103080.56;5004719;28;20502;-83
2023/02/05 07:53:43;;;;;;;13.90;5.38;;;;;;;-1.29;77.55;103071.69;5006026;28;20478;-84
2023/02/05 07:56:11;;;;;;;11.40;6.03;;;;;;;-1.23;78.79;103070.97;4995741;28;20069;-85
2023/02/05 07:58:39;;;;;;;12.85;5.97;;;;;;;-1.17;78.93;103074.63;5012269;28;20054;-86
2023/02/05 08:01:08;;;;;;;15.00;7.90;;;;;;;-1.10;78.29;103075.66;5000120;28;20057;-84
2023/02/05 08:03:36;;;;;;;11.50;7.00;;;;;;;-1.04;78.27;103075.81;5017425;28;20065;-84
2023/02/05 08:06:05;;;;;;;10.57;6.32;;;;;;;-1.00;77.86;103066.44;5010268;28;20177;-85
2023/02/05 08:08:33;;;;;;;11.75;6.30;;;;;;;-0.96;77.30;103069.16;5001534;28;20037;-85
2023/02/05 08:11:03;;;;;;;10.00;6.68;;;;;;;-1.00;76.51;103067.31;4999104;28;20058;-86
2023/02/05 08:13:31;;;;;;;8.48;5.15;;;;;;;-1.03;77.07;103072.44;4981484;28;20031;-84
2023/02/05 08:16:50;;;;;;;12.05;5.60;;;;;;;-0.99;78.11;103076.84;5007423;28;21404;-83
2023/02/05 08:19:18;;;;;;;12.10;5.25;;;;;;;-0.95;77.30;103081.25;5003762;28;20044;-84
2023/02/05 08:21:46;;;;;;;8.40;4.15;;;;;;;-0.95;76.22;103076.09;4986143;28;20540;-85
2023/02/05 08:24:13;;;;;;;6.22;4.00;;;;;;;-0.98;75.28;103057.91;4992125;28;20038;-84
2023/02/05 08:26:41;;;;;;;9.18;4.63;;;;;;;-0.96;75.09;103063.13;5012079;28;20038;-85
2023/02/05 08:29:10;;;;;;;9.90;5.07;;;;;;;-0.94;75.47;103062.34;5005983;28;20077;-86
2023/02/05 08:31:38;;;;;;;9.15;4.13;;;;;;;-0.93;75.91;103061.50;5012123;28;20041;-83
2023/02/05 08:34:06;;;;;;;8.07;4.07;;;;;;;-0.89;75.93;103055.59;5015510;28;20133;-85
2023/02/05 08:36:34;;;;;;;10.95;5.47;;;;;;;-0.84;75.88;103053.13;4981052;28;20445;-84
2023/02/05 08:39:02;;;;;;;9.45;4.78;;;;;;;-0.84;75.60;103055.72;4969263;28;20069;-84
2023/02/05 08:41:30;;;;;;;10.13;4.53;;;;;;;-0.82;75.69;103048.84;5004420;28;20108;-84
2023/02/05 08:43:58;;;;;;;10.35;4.70;;;;;;;-0.75;76.19;103055.09;4998858;28;20118;-83
2023/02/05 08:46:27;;;;;;;10.18;5.03;;;;;;;-0.74;75.99;103057.69;4999919;28;20050;-84
2023/02/05 08:49:15;;;;;;;8.05;3.83;;;;;;;-0.72;75.33;103057.72;4993061;28;20043;-84
2023/02/05 08:51:43;;;;;;;9.10;4.00;;;;;;;-0.69;75.88;103061.28;5029272;28;20114;-86
2023/02/05 08:54:12;;;;;;;7.68;4.15;;;;;;;-0.65;75.08;103062.25;5005953;28;20051;-84
2023/02/05 08:56:43;;;;;;;9.27;3.95;;;;;;;-0.66;75.12;103060.50;5009388;28;20102;-85
2023/02/05 08:59:11;;;;;;;8.23;4.03;;;;;;;-0.63;75.49;103051.13;4992820;28;20050;-86
2023/02/05 09:01:41;;;;;;;10.32;4.15;;;;;;;-0.57;75.27;103053.84;5022972;28;20106;-85
2023/02/05 09:04:18;;;;;;;8.23;4.60;;;;;;;-0.58;74.16;103051.22;5010480;28;20050;-85
2023/02/05 09:06:47;;;;;;;7.32;3.50;;;;;;;-0.61;74.32;103051.16;4994143;28;20588;-87
2023/02/05 09:09:14;;;;;;;6.75;4.03;;;;;;;-0.59;74.98;103052.03;5011170;28;20106;-86
2023/02/05 09:11:45;;;;;;;6.55;3.78;;;;;;;-0.59;74.92;103055.50;4995129;28;20046;-85
2023/02/05 09:14:15;;;;;;;7.95;4.55;;;;;;;-0.57;74.08;103052.97;4989366;28;20041;-86
2023/02/05 09:16:43;;;;;;;8.25;4.55;;;;;;;-0.58;74.60;103059.88;4989212;28;20038;-85
2023/02/05 09:19:10;;;;;;;7.93;4.00;;;;;;;-0.55;74.69;103062.50;4986309;28;20361;-85
2023/02/05 09:21:40;;;;;;;7.55;3.28;;;;;;;-0.57;74.24;103058.16;4983505;28;20046;-85
2023/02/05 09:24:10;;;;;;;7.75;3.60;;;;;;;-0.53;74.08;103068.63;4996114;28;20046;-85
2023/02/05 09:26:40;;;;;;;5.25;3.53;;;;;;;-0.53;74.68;103054.81;4989985;28;20075;-84
2023/02/05 09:29:08;;;;;;;9.93;4.40;;;;;;;-0.49;73.81;103056.66;4992600;28;20512;-85
2023/02/05 09:31:36;;;;;;;5.97;3.45;;;;;;;-0.46;74.72;103058.41;5007296;28;20114;-84
2023/02/05 09:34:04;;;;;;;9.93;4.30;;;;;;;-0.49;74.94;103056.66;5030583;28;20053;-85
2023/02/05 09:36:36;;;;;;;8.93;4.13;;;;;;;-0.48;74.25;103060.97;5035413;28;20509;-85
2023/02/05 09:39:09;;;;;;;10.10;4.55;;;;;;;-0.38;73.78;103067.25;5009741;28;20604;-84
2023/02/05 09:42:07;;;;;;;8.18;3.97;;;;;;;-0.37;73.08;103067.28;4984732;28;20664;-84
2023/02/05 09:45:04;;;;;;;6.63;3.88;;;;;;;-0.34;73.89;103062.19;5008914;28;20105;-83
2023/02/05 09:47:34;;;;;;;6.50;4.13;;;;;;;-0.33;72.81;103058.75;4984626;28;20069;-85
2023/02/05 09:50:19;;;;;;;11.48;5.00;;;;;;;-0.33;73.16;103063.94;4990268;28;20080;-83
2023/02/05 09:52:49;;;;;;;6.65;3.58;;;;;;;-0.29;72.82;103064.91;4970871;28;20492;-85
2023/02/05 09:55:25;;;;;;;9.10;3.85;;;;;;;-0.24;73.24;103060.72;4991110;28;20174;-82
2023/02/05 09:57:54;;;;;;;;;;;;;;;-0.18;73.71;103065.16;5000553;28;20046;-83
2023/02/05 10:00:36;;;;;;;9.45;4.95;;;;;;;-0.11;73.53;103061.88;4996484;28;19985;-84
2023/02/05 10:03:17;;;;;;;8.25;4.35;;;;;;;-0.05;73.07;103049.94;4987215;28;20042;-83
2023/02/05 10:06:07;;;;;;;7.90;4.57;;;;;;;-0.04;72.35;103062.09;4990221;28;20041;-82
2023/02/05 10:09:02;;;;;;;14.25;4.18;;;;;;;0.02;73.24;103060.47;4999797;28;20042;-84
2023/02/05 10:11:33;;;;;;;7.53;4.15;;;;;;;0.04;73.62;103049.28;4986578;28;20043;-83
2023/02/05 10:14:09;;;;;;;11.82;4.40;;;;;;;0.09;72.91;103042.53;4993752;28;20480;-84
2023/02/05 10:17:16;;;;;;;8.02;4.35;;;;;;;0.18;73.10;103047.94;5015534;28;20053;-85
2023/02/05 10:20:00;;;;;;;11.77;4.70;;;;;;;0.27;72.89;103046.34;4985865;28;20046;-86
2023/02/05 10:22:57;;;;;;;7.65;4.03;;;;;;;0.37;72.18;103041.44;5003178;28;20058;-84
2023/02/05 10:29:16;;;;;;;5.82;3.38;;;;;;;0.42;70.58;103028.56;4984493;28;19961;-84
2023/02/05 10:32:02;;;;;;;6.15;3.13;;;;;;;0.43;71.09;103027.72;4985965;28;20065;-84
2023/02/05 10:34:53;;;;;;;7.45;3.33;;;;;;;0.47;71.16;103020.03;4987912;28;20043;-84
2023/02/05 10:37:29;;;;;;;7.22;3.20;;;;;;;0.54;70.53;103009.78;5011375;28;20039;-86
2023/02/05 10:40:08;;;;;;;8.45;3.65;;;;;;;0.59;70.85;103018.56;4967795;28;20038;-84
2023/02/05 10:42:44;;;;;;;4.88;3.20;;;;;;;0.61;71.21;103019.47;4996304;28;20069;-86
2023/02/05 10:45:13;;;;;;;4.65;3.20;;;;;;;0.58;70.06;103016.78;5002646;28;20517;-86
2023/02/05 10:47:56;;;;;;;6.38;3.35;;;;;;;0.65;69.97;103014.38;5004609;28;20049;-85
2023/02/05 10:50:29;;;;;;;5.55;3.05;;;;;;;0.69;69.91;103011.00;5008971;28;20047;-84
2023/02/05 10:52:57;;;;;;;5.57;3.53;;;;;;;0.66;68.29;103012.66;4991230;28;20060;-84
2023/02/05 10:55:25;;;;;;;6.75;3.40;;;;;;;0.64;69.89;103010.03;4996158;28;20101;-85
2023/02/05 10:58:01;;;;;;;7.53;3.30;;;;;;;0.74;70.32;103016.28;4997663;28;20092;-86
2023/02/05 11:00:29;;;;;;;6.63;2.95;;;;;;;0.83;71.06;103006.09;4982449;28;20053;-85
2023/02/05 11:03:00;;;;;;;11.68;3.65;;;;;;;0.88;70.69;102999.25;4995035;28;20106;-85
2023/02/05 11:05:36;;;;;;;6.93;3.40;;;;;;;0.94;70.18;102996.78;4989296;28;20053;-83
2023/02/05 11:08:04;;;;;;;6.57;2.40;;;;;;;1.02;69.82;102991.75;4997412;28;20050;-83
2023/02/05 11:10:33;;;;;;;5.78;2.85;;;;;;;0.98;67.94;102997.72;5000564;28;20050;-85
2023/02/05 11:13:18;;;;;;;5.05;2.78;;;;;;;0.91;68.45;102994.16;4980088;28;20050;-86
2023/02/05 11:15:57;;;;;;;9.27;3.40;;;;;;;1.04;69.74;102994.34;4990194;28;20129;-85
2023/02/05 11:18:28;;;;;;;4.47;2.78;;;;;;;1.14;69.83;103002.34;5006487;28;20069;-85
2023/02/05 11:21:01;;;;;;;9.32;4.30;;;;;;;1.20;68.42;102999.84;4975629;28;20065;-87
2023/02/05 11:23:37;;;;;;;7.20;3.20;;;;;;;1.28;68.69;103007.78;4989845;28;20047;-86
2023/02/05 11:26:21;;;;;;;6.38;2.80;;;;;;;1.27;68.11;103003.44;4983400;28;20039;-85
2023/02/05 11:28:49;;;;;;;5.30;3.00;;;;;;;1.30;68.15;103000.88;4999614;28;20057;-85
2023/02/05 11:31:22;;;;;;;5.88;2.58;;;;;;;1.31;68.11;102994.88;5001404;28;20050;-87
2023/02/05 11:33:51;;;;;;;4.63;2.83;;;;;;;1.34;67.54;102997.50;5007518;28;20054;-86
2023/02/05 11:36:23;;;;;;;10.45;3.58;;;;;;;1.34;67.71;102992.31;5009785;28;20072;-86
2023/02/05 11:38:55;;;;;;;5.57;2.85;;;;;;;1.46;67.55;102986.47;4982691;28;20588;-87
2023/02/05 11:41:55;;;;;;;9.57;3.30;;;;;;;1.59;68.13;102988.41;4985198;28;20061;-85
2023/02/05 11:44:34;;;;;;;9.82;3.40;;;;;;;1.70;67.10;102978.19;5001654;28;20497;-86
2023/02/05 11:47:02;;;;;;;7.95;3.83;;;;;;;1.81;67.75;102987.03;5004645;28;20065;-85
2023/02/05 11:49:35;;;;;;;5.50;3.22;;;;;;;1.91;67.03;102988.91;5001951;28;20054;-82
2023/02/05 11:52:11;;;;;;;7.38;2.90;;;;;;;2.09;66.42;102984.84;4999105;28;20046;-83
2023/02/05 11:54:44;;;;;;;6.93;3.35;;;;;;;2.24;65.60;102985.03;5011442;28;20141;-85
2023/02/05 11:57:19;;;;;;;7.97;2.78;;;;;;;2.33;66.86;102986.88;5011998;28;20048;-86
2023/02/05 12:00:08;;;;;;;4.25;2.90;;;;;;;2.38;64.58;102988.69;5003823;28;20552;-85
2023/02/05 12:02:37;;;;;;;8.15;3.35;;;;;;;2.49;64.72;102992.31;5012627;28;20480;-85
2023/02/05 12:05:11;;;;;;;9.45;3.65;;;;;;;2.58;64.92;102993.28;5001544;28;20568;-85
2023/02/05 12:07:44;;;;;;;5.57;3.08;;;;;;;2.65;64.57;102982.06;5011578;28;20052;-84